createdAt,value
2023-05-16T00:01:58.241Z,93.41
2023-05-16T00:05:20.198Z,93.80
2023-05-16T00:08:41.988Z,94.07
2023-05-16T00:12:04.879Z,94.02
2023-05-16T00:15:26.532Z,93.41
2023-05-16T00:18:51.067Z,93.51
2023-05-16T00:22:14.830Z,94.32
2023-05-16T00:25:38.832Z,94.33
2023-05-16T00:29:02.366Z,93.22
2023-05-16T00:32:26.418Z,93.40
2023-05-16T00:35:48.131Z,93.96
2023-05-16T00:39:11.636Z,94.42
2023-05-16T00:42:33.703Z,94.27
2023-05-16T00:45:55.501Z,94.48
2023-05-16T00:49:17.403Z,94.07
2023-05-16T00:52:39.336Z,94.04
2023-05-16T00:56:00.945Z,94.38
2023-05-16T00:59:24.193Z,94.10
2023-05-16T01:02:51.647Z,93.66
2023-05-16T01:06:15.593Z,93.07
2023-05-16T01:09:39.542Z,93.83
2023-05-16T01:13:13.995Z,93.77
2023-05-16T01:16:48.877Z,93.85
2023-05-16T01:20:39.976Z,92.37
2023-05-16T01:24:14.620Z,92.28
2023-05-16T01:27:40.968Z,92.92
2023-05-16T01:31:07.074Z,93.08
2023-05-16T01:34:28.699Z,92.67
2023-05-16T01:37:58.801Z,92.77
2023-05-16T01:41:45.503Z,93.12
2023-05-16T01:45:29.996Z,93.09
2023-05-16T01:48:58.526Z,93.21
2023-05-16T01:52:27.036Z,93.17
2023-05-16T01:55:55.845Z,93.19
2023-05-16T01:59:18.448Z,92.72
2023-05-16T02:02:42.398Z,92.39
2023-05-16T02:06:04.919Z,91.99
2023-05-16T02:09:29.089Z,91.90
2023-05-16T02:12:51.783Z,91.97
2023-05-16T02:16:13.472Z,92.60
2023-05-16T02:19:37.743Z,92.63
2023-05-16T02:22:59.323Z,92.35
2023-05-16T02:26:20.918Z,91.69
2023-05-16T02:29:42.508Z,91.99
2023-05-16T02:33:04.210Z,91.43
2023-05-16T02:36:26.126Z,92.01
2023-05-16T02:39:47.796Z,91.85
2023-05-16T02:43:11.762Z,92.43
2023-05-16T02:46:38.111Z,92.44
2023-05-16T02:49:59.977Z,92.08
2023-05-16T02:53:21.784Z,91.66
2023-05-16T02:56:43.624Z,91.27
2023-05-16T03:00:06.366Z,92.37
2023-05-16T03:03:29.788Z,91.68
2023-05-16T03:06:53.591Z,91.67
2023-05-16T03:10:15.485Z,92.48
2023-05-16T03:13:37.195Z,92.17
2023-05-16T03:17:00.894Z,91.88
2023-05-16T03:20:22.756Z,91.90
2023-05-16T03:23:44.377Z,91.25
2023-05-16T03:27:06.238Z,91.29
2023-05-16T03:30:30.090Z,91.54
2023-05-16T03:33:51.662Z,91.98
2023-05-16T03:37:15.442Z,92.46
2023-05-16T03:40:37.201Z,92.89
2023-05-16T03:43:58.783Z,92.98
2023-05-16T03:47:22.882Z,92.50
2023-05-16T03:50:44.494Z,91.81
2023-05-16T03:54:06.121Z,92.04
2023-05-16T03:57:30.007Z,92.00
2023-05-16T04:00:51.578Z,92.32
2023-05-16T04:04:14.193Z,91.53
2023-05-16T04:07:40.670Z,92.16
2023-05-16T04:11:02.610Z,92.25
2023-05-16T04:14:26.429Z,92.01
2023-05-16T04:17:48.066Z,92.00
2023-05-16T04:21:11.606Z,91.62
2023-05-16T04:24:35.973Z,91.52
2023-05-16T04:27:57.586Z,91.05
2023-05-16T04:31:19.357Z,90.70
2023-05-16T04:34:41.159Z,90.96
2023-05-16T04:38:02.804Z,90.56
2023-05-16T04:41:24.857Z,90.22
2023-05-16T04:44:48.021Z,90.69
2023-05-16T04:48:10.166Z,91.25
2023-05-16T04:51:36.347Z,90.31
2023-05-16T04:55:00.599Z,90.49
2023-05-16T04:58:24.204Z,89.75
2023-05-16T05:01:45.823Z,89.63
2023-05-16T05:05:08.593Z,89.78
2023-05-16T05:08:30.822Z,90.01
2023-05-16T05:11:54.705Z,90.24
2023-05-16T05:15:16.385Z,90.36
2023-05-16T05:18:40.138Z,89.77
2023-05-16T05:22:03.881Z,90.38
2023-05-16T05:25:28.251Z,90.49
2023-05-16T05:29:01.150Z,91.03
2023-05-16T05:32:26.673Z,90.99
2023-05-16T05:35:53.985Z,91.49
2023-05-16T05:39:15.792Z,91.45
2023-05-16T05:42:39.810Z,91.43
2023-05-16T05:46:03.694Z,90.91
2023-05-16T05:49:28.426Z,90.69
2023-05-16T05:52:50.258Z,90.71
2023-05-16T05:56:11.917Z,90.74
2023-05-16T05:59:34.178Z,91.35
2023-05-16T06:02:55.956Z,90.55
2023-05-16T06:06:18.061Z,91.24
2023-05-16T06:09:39.662Z,90.69
2023-05-16T06:13:03.857Z,90.39
2023-05-16T06:16:26.084Z,90.26
2023-05-16T06:19:47.898Z,90.98
2023-05-16T06:23:09.479Z,91.91
2023-05-16T06:26:33.924Z,91.62
2023-05-16T06:29:57.687Z,91.46
2023-05-16T06:33:19.472Z,92.34
2023-05-16T06:36:41.684Z,91.90
2023-05-16T06:40:08.330Z,92.46
2023-05-16T06:43:29.917Z,92.64
2023-05-16T06:46:51.755Z,92.23
2023-05-16T06:50:15.755Z,92.24
2023-05-16T06:53:39.656Z,92.21
2023-05-16T06:57:01.297Z,92.23
2023-05-16T07:00:23.111Z,92.54
2023-05-16T07:03:47.330Z,92.71
2023-05-16T07:07:11.274Z,92.72
2023-05-16T07:10:37.810Z,92.21
2023-05-16T07:14:01.863Z,92.01
2023-05-16T07:17:25.708Z,91.94
2023-05-16T07:20:49.936Z,92.02
2023-05-16T07:24:11.539Z,92.14
2023-05-16T07:27:37.914Z,93.29
2023-05-16T07:31:00.443Z,93.38
2023-05-16T07:34:24.314Z,93.72
2023-05-16T07:37:45.951Z,94.84
2023-05-16T07:41:07.765Z,95.30
2023-05-16T07:44:29.405Z,95.81
2023-05-16T07:47:53.456Z,96.03
2023-05-16T07:51:15.101Z,95.72
2023-05-16T07:54:39.138Z,95.84
2023-05-16T07:58:00.953Z,96.58
2023-05-16T08:01:22.680Z,96.62
2023-05-16T08:04:47.032Z,96.82
2023-05-16T08:08:11.008Z,96.55
2023-05-16T08:11:32.878Z,96.81
2023-05-16T08:14:57.337Z,96.99
2023-05-16T08:18:22.720Z,97.05
2023-05-16T08:21:47.303Z,96.40
2023-05-16T08:25:09.228Z,96.38
2023-05-16T08:28:33.715Z,95.50
2023-05-16T08:31:58.336Z,96.06
2023-05-16T08:35:25.638Z,96.13
2023-05-16T08:38:50.484Z,96.13
2023-05-16T08:42:12.339Z,96.37
2023-05-16T08:45:39.167Z,96.22
2023-05-16T08:49:08.051Z,96.68
2023-05-16T08:52:31.729Z,97.07
2023-05-16T08:55:53.930Z,96.39
2023-05-16T08:59:18.275Z,96.59
2023-05-16T09:02:44.502Z,95.88
2023-05-16T09:06:08.200Z,95.51
2023-05-16T09:09:32.816Z,95.47
2023-05-16T09:12:56.647Z,96.13
2023-05-16T09:16:21.526Z,95.57
2023-05-16T09:19:44.509Z,95.75
2023-05-16T09:23:09.805Z,95.53
2023-05-16T09:26:33.291Z,95.32
2023-05-16T09:29:58.725Z,95.43
2023-05-16T09:33:25.918Z,94.98
2023-05-16T09:36:47.731Z,95.24
2023-05-16T09:40:12.900Z,95.21
2023-05-16T09:43:42.006Z,94.48
2023-05-16T09:47:03.784Z,94.19
2023-05-16T09:50:25.701Z,94.66
2023-05-16T09:53:49.721Z,94.54
2023-05-16T09:57:11.387Z,95.02
2023-05-16T10:00:36.263Z,94.38
2023-05-16T10:04:00.588Z,95.01
2023-05-16T10:07:27.530Z,94.41
2023-05-16T10:10:57.050Z,93.75
2023-05-16T10:14:22.655Z,94.49
2023-05-16T10:17:50.961Z,94.99
2023-05-16T10:21:15.819Z,95.95
2023-05-16T10:24:54.444Z,95.88
2023-05-16T10:28:19.025Z,96.22
2023-05-16T10:31:43.735Z,96.29
2023-05-16T10:35:06.180Z,96.35
2023-05-16T10:38:29.743Z,96.77
2023-05-16T10:41:51.397Z,96.31
2023-05-16T10:45:18.310Z,95.66
2023-05-16T10:48:41.248Z,95.94
2023-05-16T10:52:08.679Z,95.82
2023-05-16T10:55:30.625Z,96.43
2023-05-16T10:58:56.225Z,96.11
2023-05-16T11:02:34.809Z,96.84
2023-05-16T11:05:59.932Z,96.53
2023-05-16T11:09:27.666Z,96.90
2023-05-16T11:12:51.364Z,95.97
2023-05-16T11:16:32.541Z,95.65
2023-05-16T11:20:07.505Z,95.52
2023-05-16T11:23:29.111Z,95.57
2023-05-16T11:26:53.517Z,96.09
2023-05-16T11:30:19.916Z,95.40
2023-05-16T11:33:41.610Z,95.58
2023-05-16T11:37:05.426Z,98.25
2023-05-16T11:40:27.207Z,99.88
2023-05-16T11:43:54.049Z,98.18
2023-05-16T11:47:15.738Z,94.38
2023-05-16T11:50:38.093Z,93.20
2023-05-16T11:54:05.023Z,91.47
2023-05-16T11:57:26.850Z,88.79
2023-05-16T12:00:53.015Z,90.35
2023-05-16T12:04:16.238Z,91.55
2023-05-16T12:07:38.252Z,93.27
2023-05-16T12:11:00.660Z,92.41
2023-05-16T12:14:22.835Z,92.65
2023-05-16T12:17:47.968Z,93.81
2023-05-16T12:21:12.406Z,93.03
2023-05-16T12:24:40.638Z,98.16
2023-05-16T12:28:08.049Z,94.85
2023-05-16T12:31:32.476Z,93.42
2023-05-16T12:34:54.963Z,92.98
2023-05-16T12:38:19.440Z,93.93
2023-05-16T12:41:43.304Z,87.39
2023-05-16T12:45:16.090Z,87.93
2023-05-16T12:48:42.247Z,88.21
2023-05-16T12:52:12.884Z,88.54
2023-05-16T12:55:36.949Z,89.79
2023-05-16T12:58:58.548Z,90.82
2023-05-16T13:02:20.296Z,92.97
2023-05-16T13:05:44.560Z,90.69
2023-05-16T13:09:06.295Z,90.54
2023-05-16T13:12:33.115Z,90.01
2023-05-16T13:15:55.336Z,92.42
2023-05-16T13:19:17.394Z,89.68
2023-05-16T13:22:43.704Z,89.93
2023-05-16T13:26:05.553Z,88.66
2023-05-16T13:29:29.847Z,88.95
2023-05-16T13:32:52.554Z,89.31
2023-05-16T13:36:16.571Z,89.60
2023-05-16T13:39:38.260Z,91.60
2023-05-16T13:43:01.611Z,87.93
2023-05-16T13:46:26.066Z,87.86
2023-05-16T13:49:50.147Z,88.70
2023-05-16T13:53:11.847Z,90.03
2023-05-16T13:56:35.773Z,89.09
2023-05-16T14:00:21.941Z,88.87
2023-05-16T14:03:39.124Z,85.39
2023-05-16T14:07:01.103Z,86.77
2023-05-16T14:10:25.237Z,87.39
2023-05-16T14:13:46.941Z,88.10
2023-05-16T14:17:11.223Z,88.67
2023-05-16T14:20:32.930Z,90.00
2023-05-16T14:23:55.077Z,92.46
2023-05-16T14:27:19.111Z,91.34
2023-05-16T14:30:40.911Z,90.33
2023-05-16T14:34:03.036Z,91.64
2023-05-16T14:37:24.763Z,90.85
2023-05-16T14:40:46.436Z,90.66
2023-05-16T14:44:08.069Z,89.91
2023-05-16T14:47:31.339Z,89.81
2023-05-16T14:50:53.170Z,90.71
2023-05-16T14:54:15.178Z,89.88
2023-05-16T14:57:37.018Z,90.73
2023-05-16T15:01:01.176Z,90.90
2023-05-16T15:04:25.131Z,88.52
2023-05-16T15:07:46.942Z,90.43
2023-05-16T15:11:13.218Z,89.79
2023-05-16T15:14:35.152Z,88.45
2023-05-16T15:17:56.829Z,89.62
2023-05-16T15:21:21.100Z,89.26
2023-05-16T15:24:42.893Z,88.23
2023-05-16T15:28:07.870Z,89.43
2023-05-16T15:31:31.585Z,88.62
2023-05-16T15:34:57.778Z,87.83
2023-05-16T15:38:19.476Z,90.80
2023-05-16T15:42:05.314Z,90.39
2023-05-16T15:45:22.729Z,90.37
2023-05-16T15:48:45.012Z,90.67
2023-05-16T15:52:06.973Z,90.81
2023-05-16T15:55:28.906Z,90.14
2023-05-16T15:58:55.773Z,90.28
2023-05-16T16:02:17.484Z,88.47
2023-05-16T16:05:41.656Z,86.81
2023-05-16T16:09:05.713Z,88.28
2023-05-16T16:12:29.668Z,89.60
2023-05-16T16:15:51.983Z,90.19
2023-05-16T16:19:13.625Z,91.07
2023-05-16T16:22:37.762Z,91.86
2023-05-16T16:26:01.889Z,92.51
2023-05-16T16:29:23.638Z,93.17
2023-05-16T16:32:49.031Z,97.66
2023-05-16T16:36:10.976Z,96.24
2023-05-16T16:39:33.365Z,93.80
2023-05-16T16:42:57.437Z,94.05
2023-05-16T16:46:19.324Z,89.99
2023-05-16T16:49:43.422Z,92.57
2023-05-16T16:53:05.426Z,92.66
2023-05-16T16:56:28.092Z,91.47
2023-05-16T16:59:50.031Z,90.91
2023-05-16T17:03:12.203Z,90.83
2023-05-16T17:06:33.857Z,88.67
2023-05-16T17:09:56.298Z,89.83
2023-05-16T17:13:20.981Z,90.53
2023-05-16T17:16:43.381Z,91.40
2023-05-16T17:20:06.806Z,91.83
2023-05-16T17:23:28.430Z,93.08
2023-05-16T17:26:52.847Z,93.63
2023-05-16T17:30:18.522Z,94.40
2023-05-16T17:33:42.966Z,93.97
2023-05-16T17:37:06.224Z,94.51
2023-05-16T17:40:30.782Z,94.59
2023-05-16T17:43:55.406Z,95.05
2023-05-16T17:47:19.477Z,94.93
2023-05-16T17:50:43.467Z,95.40
2023-05-16T17:54:05.110Z,95.27
2023-05-16T17:57:29.254Z,96.18
2023-05-16T18:00:50.934Z,96.35
2023-05-16T18:04:13.266Z,96.34
2023-05-16T18:07:40.033Z,96.27
2023-05-16T18:11:01.650Z,96.11
2023-05-16T18:14:25.921Z,96.19
2023-05-16T18:17:50.414Z,96.07
2023-05-16T18:21:14.565Z,96.28
2023-05-16T18:24:36.307Z,96.33
2023-05-16T18:28:00.542Z,96.37
2023-05-16T18:31:24.750Z,96.78
2023-05-16T18:34:48.945Z,96.65
2023-05-16T18:38:20.301Z,96.92
2023-05-16T18:41:48.913Z,96.98
2023-05-16T18:45:11.011Z,97.05
2023-05-16T18:48:36.365Z,96.87
2023-05-16T18:51:58.050Z,96.80
2023-05-16T18:55:22.432Z,96.79
2023-05-16T18:58:44.080Z,96.82
2023-05-16T19:02:05.730Z,96.60
2023-05-16T19:05:29.888Z,96.30
2023-05-16T19:08:54.075Z,96.59
2023-05-16T19:12:15.815Z,96.47
2023-05-16T19:15:37.984Z,96.43
2023-05-16T19:19:02.259Z,96.27
2023-05-16T19:22:26.694Z,96.56
2023-05-16T19:25:49.208Z,96.74
2023-05-16T19:29:11.133Z,96.27
2023-05-16T19:32:35.004Z,96.12
2023-05-16T19:35:57.793Z,96.45
2023-05-16T19:39:21.875Z,96.58
2023-05-16T19:42:45.981Z,96.27
2023-05-16T19:46:07.747Z,96.48
2023-05-16T19:49:31.892Z,96.44
2023-05-16T19:52:53.571Z,96.46
2023-05-16T19:56:15.368Z,96.49
2023-05-16T19:59:37.000Z,96.91
2023-05-16T20:02:58.782Z,96.55
2023-05-16T20:06:22.997Z,97.01
2023-05-16T20:09:44.671Z,97.00
2023-05-16T20:13:10.997Z,96.76
2023-05-16T20:16:34.903Z,97.36
2023-05-16T20:19:59.078Z,97.53
2023-05-16T20:23:21.557Z,97.50
2023-05-16T20:26:43.555Z,97.17
2023-05-16T20:30:10.017Z,97.17
2023-05-16T20:33:31.692Z,97.18
2023-05-16T20:36:53.333Z,97.27
2023-05-16T20:40:14.915Z,96.48
2023-05-16T20:43:38.662Z,96.57
2023-05-16T20:47:00.561Z,96.83
2023-05-16T20:50:24.515Z,97.04
2023-05-16T20:53:48.414Z,97.09
2023-05-16T20:57:12.534Z,97.44
2023-05-16T21:00:34.134Z,97.44
2023-05-16T21:03:58.106Z,96.86
2023-05-16T21:07:22.073Z,96.87
2023-05-16T21:10:43.762Z,96.83
2023-05-16T21:14:05.490Z,97.16
2023-05-16T21:17:27.197Z,96.90
2023-05-16T21:20:48.833Z,97.23
2023-05-16T21:24:13.176Z,97.27
2023-05-16T21:27:34.856Z,97.23
2023-05-16T21:30:58.927Z,97.43
2023-05-16T21:34:25.680Z,97.59
2023-05-16T21:37:47.362Z,97.18
2023-05-16T21:41:08.989Z,96.81
2023-05-16T21:44:32.944Z,96.80
2023-05-16T21:47:54.653Z,97.17
2023-05-16T21:51:16.391Z,97.49
2023-05-16T21:54:42.966Z,97.35
2023-05-16T21:58:09.856Z,97.28
2023-05-16T22:01:31.426Z,97.19
2023-05-16T22:04:53.543Z,96.81
2023-05-16T22:08:15.411Z,96.71
2023-05-16T22:11:39.302Z,96.52
2023-05-16T22:15:03.916Z,96.45
2023-05-16T22:18:26.240Z,96.62
2023-05-16T22:21:50.424Z,96.54
2023-05-16T22:25:15.628Z,96.29
2023-05-16T22:28:42.633Z,96.29
2023-05-16T22:32:08.442Z,96.71
2023-05-16T22:35:33.109Z,97.25
2023-05-16T22:38:54.718Z,97.47
2023-05-16T22:42:21.311Z,97.51
2023-05-16T22:45:43.150Z,97.33
2023-05-16T22:49:08.223Z,97.26
2023-05-16T22:52:29.989Z,96.54
2023-05-16T22:55:51.579Z,96.17
2023-05-16T22:59:13.232Z,96.82
2023-05-16T23:02:35.032Z,97.23
2023-05-16T23:05:56.898Z,97.33
2023-05-16T23:09:20.681Z,97.59
2023-05-16T23:12:42.353Z,97.35
2023-05-16T23:16:04.133Z,97.16
2023-05-16T23:19:26.265Z,97.35
2023-05-16T23:22:48.508Z,97.33
2023-05-16T23:26:12.475Z,97.00
2023-05-16T23:29:35.156Z,96.59
2023-05-16T23:32:59.842Z,96.65
2023-05-16T23:36:24.101Z,96.85
2023-05-16T23:39:45.752Z,96.87
2023-05-16T23:43:09.978Z,96.45
2023-05-16T23:46:32.267Z,96.75
2023-05-16T23:49:53.918Z,97.23
2023-05-16T23:53:16.630Z,97.14
2023-05-16T23:56:38.276Z,96.93
2023-05-16T23:59:59.973Z,96.99
